Карточка аэропорта UOOO

Внимание!
Информация на этой странице в стадии наполнения.
Если вы не увидели какой-то информации, или заметили неточность - пожалуйста сообщите нам!
Спасибо!
Команда RU-STAFF
Название аэропортаАлыкель
Название аэропорта (англ.)Alykel
Превышение574 ft. (175 m.)
Координаты69°19.02', 87°19.02'
Высота перехода1200m
Эшелон переходаQFE>744:FL60;744>QFE>717:FL70;717>QFE:FL80
Коды ответчика5401-5427
Зона ОрВДКрасноярск РПИ (UNKL)
Данные METARUOOO 290430Z 18004MPS 6000 -SN OVC024 M16/M18 Q1037 R19/491032 NOSIG RMK QFE761/1015
Проноз погоды (TAF)UOOO 290133Z 2903/3003 18005G10MPS 6000 -SN DRSN BKN016 TEMPO 2903/2913 3000 -SN DRSN BKN011 BECMG 2913/2915 OVC011 TEMPO 2915/3003 24003G08MPS 1500 SN BR OVC006
NOTAMshow/hide NOTAM
AWOS   TABLE

Информация о ВПП

ВПП Длина ВПП (м.) Покрытие Курс ВПП Частота ILS
013430Бетон13109.5
193430Бетон193110.3

Диспетчерские позиции

Позывной Наименование органа УВД Частота
UOOO_GNDНорильск - Руление121.700
UOOO_APPНорильск - Круг120.400
UOOO_TWRНорильск - Старт118.300



Спутниковое изображение